首页
METAR-TAF:

METAR-TAF

机场 :

科羅拉多大峽谷, 亞利桑那州, 美国

纬度: 35-56-46N, 经度: 112-09-17W, 海拔: 2014米

当前天气观测

该预报发布于54分钟前的07:54 UTC
静风
温度 -7°C
湿度 73%
气压 1026 hPa
能見度: 16.1公里
天空无云

METAR: KGCN 180754Z AUTO 00000KT 10SM CLR M07/M11 A3030 RMK AO2 SLP269 T10671106

时间: 01:48 (08:48 UTC)

预报

该预报发布于3小时和28分钟前的05:20 UTC
预报有效从18日的 06点(UTC)到 19日的 06点(UTC)
风速8节,风向东转东北
能見度: 10公里
散云层高于25000英尺

TAF: KGCN 180520Z 1806/1906 06008KT P6SM SCT250

超过4000个机场的气象观测和天气预报(METAR&TAF报告)。

可查询的气象台以黄色和红色小点在地图上表示。

将鼠标移到小点上方,可查看气象台名称。

然后点击查看天气观测和预报。

如需切换地图:点击带黑十字的绿色按钮放大地图;点击带横线的绿色按钮缩小地图;或者点击绿色箭头查看邻近地区的地图。


METAR-TAF: